createdAt,value
2023-10-22T00:00:01.220Z,36.58
2023-10-22T00:02:39.435Z,36.80
2023-10-22T00:05:07.512Z,37.21
2023-10-22T00:07:35.231Z,37.23
2023-10-22T00:10:02.539Z,37.08
2023-10-22T00:12:29.688Z,37.43
2023-10-22T00:14:56.795Z,37.19
2023-10-22T00:17:23.880Z,37.21
2023-10-22T00:19:51.102Z,37.08
2023-10-22T00:22:18.592Z,37.00
2023-10-22T00:24:45.655Z,36.77
2023-10-22T00:27:12.875Z,36.81
2023-10-22T00:29:40.192Z,36.79
2023-10-22T00:32:07.671Z,36.77
2023-10-22T00:34:36.146Z,36.92
2023-10-22T00:37:04.190Z,37.17
2023-10-22T00:39:31.312Z,36.96
2023-10-22T00:41:58.568Z,37.36
2023-10-22T00:44:25.685Z,37.80
2023-10-22T00:46:53.602Z,37.38
2023-10-22T00:49:21.011Z,37.42
2023-10-22T00:51:48.396Z,37.18
2023-10-22T00:54:16.985Z,37.55
2023-10-22T00:56:44.372Z,37.55
2023-10-22T00:59:13.232Z,37.68
2023-10-22T01:01:40.299Z,37.13
2023-10-22T01:04:08.483Z,37.29
2023-10-22T01:06:37.206Z,37.87
2023-10-22T01:09:05.468Z,37.65
2023-10-22T01:11:32.535Z,37.52
2023-10-22T01:13:59.637Z,37.71
2023-10-22T01:16:27.746Z,37.82
2023-10-22T01:18:54.770Z,37.62
2023-10-22T01:21:26.101Z,37.94
2023-10-22T01:23:53.267Z,38.02
2023-10-22T01:26:20.594Z,37.90
2023-10-22T01:28:47.690Z,37.96
2023-10-22T01:31:18.118Z,37.86
2023-10-22T01:33:45.455Z,37.52
2023-10-22T01:36:12.916Z,37.24
2023-10-22T01:38:40.165Z,37.19
2023-10-22T01:41:08.745Z,37.08
2023-10-22T01:43:36.205Z,37.26
2023-10-22T01:46:03.491Z,36.93
2023-10-22T01:48:30.668Z,37.18
2023-10-22T01:50:57.855Z,37.13
2023-10-22T01:53:25.160Z,37.14
2023-10-22T01:55:52.371Z,36.89
2023-10-22T01:58:19.463Z,37.17
2023-10-22T02:00:46.654Z,36.96
2023-10-22T02:03:13.789Z,36.89
2023-10-22T02:05:40.959Z,37.20
2023-10-22T02:08:08.114Z,37.29
2023-10-22T02:10:36.257Z,37.21
2023-10-22T02:13:03.418Z,37.60
2023-10-22T02:15:30.955Z,37.32
2023-10-22T02:17:58.044Z,37.45
2023-10-22T02:20:25.260Z,37.82
2023-10-22T02:22:52.500Z,37.47
2023-10-22T02:25:19.606Z,37.44
2023-10-22T02:27:46.671Z,37.96
2023-10-22T02:30:14.337Z,37.85
2023-10-22T02:32:41.564Z,37.78
2023-10-22T02:35:09.216Z,37.83
2023-10-22T02:37:36.261Z,37.83
2023-10-22T02:40:03.933Z,38.13
2023-10-22T02:42:31.401Z,38.24
2023-10-22T02:44:58.418Z,38.38
2023-10-22T02:47:25.644Z,38.67
2023-10-22T02:49:55.761Z,38.29
2023-10-22T02:52:22.899Z,38.86
2023-10-22T02:54:50.360Z,39.18
2023-10-22T02:57:17.807Z,38.57
2023-10-22T02:59:44.981Z,39.21
2023-10-22T03:02:12.136Z,38.81
2023-10-22T03:04:39.530Z,39.18
2023-10-22T03:07:06.866Z,39.39
2023-10-22T03:09:33.861Z,39.13
2023-10-22T03:12:02.196Z,39.10
2023-10-22T03:14:29.283Z,38.95
2023-10-22T03:16:58.353Z,39.36
2023-10-22T03:19:25.820Z,39.28
2023-10-22T03:21:53.141Z,39.63
2023-10-22T03:24:20.258Z,39.96
2023-10-22T03:26:47.953Z,40.10
2023-10-22T03:29:15.115Z,40.23
2023-10-22T03:31:42.385Z,40.39
2023-10-22T03:34:09.425Z,40.35
2023-10-22T03:36:36.788Z,40.26
2023-10-22T03:39:04.082Z,40.09
2023-10-22T03:41:31.317Z,40.47
2023-10-22T03:44:01.923Z,40.39
2023-10-22T03:46:29.076Z,40.47
2023-10-22T03:48:58.482Z,40.48
2023-10-22T03:51:26.002Z,40.19
2023-10-22T03:53:57.824Z,40.49
2023-10-22T03:56:24.910Z,40.32
2023-10-22T03:58:51.972Z,40.48
2023-10-22T04:01:19.184Z,40.59
2023-10-22T04:03:46.382Z,40.40
2023-10-22T04:06:13.542Z,40.78
2023-10-22T04:08:40.662Z,40.66
2023-10-22T04:11:08.716Z,40.96
2023-10-22T04:13:35.880Z,41.05
2023-10-22T04:16:02.976Z,41.28
2023-10-22T04:18:30.172Z,41.35
2023-10-22T04:20:57.510Z,41.18
2023-10-22T04:23:25.605Z,41.40
2023-10-22T04:25:52.681Z,41.35
2023-10-22T04:28:20.193Z,41.68
2023-10-22T04:30:50.036Z,41.69
2023-10-22T04:33:17.341Z,42.03
2023-10-22T04:35:44.464Z,41.57
2023-10-22T04:38:11.802Z,41.88
2023-10-22T04:40:38.818Z,42.24
2023-10-22T04:43:05.843Z,42.24
2023-10-22T04:45:32.978Z,41.95
2023-10-22T04:48:00.151Z,42.46
2023-10-22T04:50:27.592Z,42.28
2023-10-22T04:52:54.580Z,42.72
2023-10-22T04:55:21.994Z,42.39
2023-10-22T04:57:49.117Z,42.56
2023-10-22T05:00:16.427Z,42.60
2023-10-22T05:02:43.733Z,42.49
2023-10-22T05:05:10.988Z,42.51
2023-10-22T05:07:38.093Z,42.94
2023-10-22T05:10:06.124Z,43.21
2023-10-22T05:12:33.459Z,42.81
2023-10-22T05:15:00.591Z,43.35
2023-10-22T05:17:27.800Z,43.52
2023-10-22T05:19:54.871Z,43.24
2023-10-22T05:22:22.147Z,43.19
2023-10-22T05:24:50.137Z,43.11
2023-10-22T05:27:18.941Z,43.09
2023-10-22T05:29:49.931Z,43.06
2023-10-22T05:32:17.176Z,43.31
2023-10-22T05:34:44.734Z,43.26
2023-10-22T05:37:11.999Z,43.38
2023-10-22T05:39:39.099Z,43.38
2023-10-22T05:42:07.394Z,43.30
2023-10-22T05:44:38.519Z,43.74
2023-10-22T05:47:06.188Z,43.67
2023-10-22T05:49:33.362Z,43.73
2023-10-22T05:52:00.408Z,43.39
2023-10-22T05:54:27.556Z,43.55
2023-10-22T05:56:54.588Z,43.88
2023-10-22T05:59:21.751Z,43.83
2023-10-22T06:01:49.152Z,43.88
2023-10-22T06:04:16.300Z,43.69
2023-10-22T06:06:43.414Z,43.68
2023-10-22T06:09:13.602Z,43.95
2023-10-22T06:11:41.151Z,44.03
2023-10-22T06:14:10.280Z,43.68
2023-10-22T06:16:38.978Z,43.97
2023-10-22T06:19:06.096Z,43.96
2023-10-22T06:21:33.125Z,43.89
2023-10-22T06:24:00.718Z,44.36
2023-10-22T06:26:27.821Z,43.86
2023-10-22T06:28:54.825Z,43.99
2023-10-22T06:31:22.067Z,44.32
2023-10-22T06:33:50.168Z,44.09
2023-10-22T06:36:22.383Z,44.23
2023-10-22T06:38:50.975Z,44.32
2023-10-22T06:41:19.605Z,44.30
2023-10-22T06:43:46.957Z,44.37
2023-10-22T06:46:14.860Z,43.98
2023-10-22T06:48:44.019Z,44.35
2023-10-22T06:51:19.608Z,44.42
2023-10-22T06:53:48.734Z,44.45
2023-10-22T06:56:16.965Z,44.38
2023-10-22T06:58:46.399Z,44.47
2023-10-22T07:01:15.712Z,44.42
2023-10-22T07:03:47.657Z,44.32
2023-10-22T07:06:15.531Z,44.47
2023-10-22T07:08:44.790Z,44.29
2023-10-22T07:11:12.552Z,44.51
2023-10-22T07:13:39.642Z,44.44
2023-10-22T07:16:08.263Z,44.41
2023-10-22T07:18:35.490Z,44.09
2023-10-22T07:21:03.026Z,44.35
2023-10-22T07:23:33.348Z,44.39
2023-10-22T07:26:00.914Z,44.34
2023-10-22T07:28:28.335Z,44.44
2023-10-22T07:30:55.392Z,44.43
2023-10-22T07:33:22.695Z,44.25
2023-10-22T07:35:57.606Z,44.39
2023-10-22T07:38:34.093Z,43.96
2023-10-22T07:41:02.174Z,44.09
2023-10-22T07:43:30.533Z,44.38
2023-10-22T07:46:05.979Z,44.42
2023-10-22T07:48:36.326Z,45.47
2023-10-22T07:51:17.245Z,44.58
2023-10-22T07:53:46.015Z,44.30
2023-10-22T07:56:14.022Z,44.24
2023-10-22T07:58:41.421Z,44.35
2023-10-22T08:01:09.445Z,44.52
2023-10-22T08:03:37.344Z,44.97
2023-10-22T08:06:05.918Z,44.93
2023-10-22T08:08:33.214Z,44.69
2023-10-22T08:11:02.350Z,44.52
2023-10-22T08:13:29.428Z,44.97
2023-10-22T08:15:57.848Z,44.71
2023-10-22T08:18:25.697Z,44.33
2023-10-22T08:20:53.196Z,44.73
2023-10-22T08:23:20.373Z,44.43
2023-10-22T08:25:52.787Z,44.60
2023-10-22T08:28:21.213Z,44.55
2023-10-22T08:30:49.060Z,44.75
2023-10-22T08:33:16.237Z,44.58
2023-10-22T08:35:43.736Z,44.43
2023-10-22T08:38:10.851Z,44.33
2023-10-22T08:40:39.695Z,44.25
2023-10-22T08:43:08.103Z,43.59
2023-10-22T08:45:35.245Z,43.32
2023-10-22T08:48:07.405Z,43.12
2023-10-22T08:50:35.036Z,43.13
2023-10-22T08:53:02.175Z,43.06
2023-10-22T08:55:30.596Z,43.36
2023-10-22T08:58:00.804Z,43.52
2023-10-22T09:00:30.796Z,43.23
2023-10-22T09:02:59.572Z,42.80
2023-10-22T09:05:26.903Z,42.35
2023-10-22T09:07:56.089Z,42.36
2023-10-22T09:10:29.815Z,42.04
2023-10-22T09:13:17.813Z,41.83
2023-10-22T09:15:46.743Z,41.71
2023-10-22T09:18:15.214Z,41.56
2023-10-22T09:20:43.615Z,41.78
2023-10-22T09:23:18.795Z,41.83
2023-10-22T09:26:13.220Z,41.41
2023-10-22T09:28:40.227Z,41.80
2023-10-22T09:31:08.238Z,41.72
2023-10-22T09:33:37.551Z,41.78
2023-10-22T09:36:15.874Z,41.66
2023-10-22T09:38:47.638Z,41.41
2023-10-22T09:41:20.496Z,41.47
2023-10-22T09:43:47.626Z,41.36
2023-10-22T09:46:15.427Z,41.63
2023-10-22T09:48:44.673Z,41.56
2023-10-22T09:51:14.687Z,41.52
2023-10-22T09:53:50.549Z,41.72
2023-10-22T09:56:20.959Z,41.80
2023-10-22T09:58:50.069Z,41.82
2023-10-22T10:01:17.329Z,41.60
2023-10-22T10:03:45.213Z,42.04
2023-10-22T10:06:12.889Z,41.59
2023-10-22T10:08:40.965Z,41.68
2023-10-22T10:11:12.761Z,41.84
2023-10-22T10:13:41.413Z,41.40
2023-10-22T10:16:08.864Z,41.64
2023-10-22T10:19:04.500Z,41.59
2023-10-22T10:21:39.486Z,41.65
2023-10-22T10:24:15.629Z,41.22
2023-10-22T10:26:43.017Z,40.99
2023-10-22T10:29:16.399Z,40.53
2023-10-22T10:31:49.390Z,40.19
2023-10-22T10:34:26.129Z,39.92
2023-10-22T10:36:56.709Z,40.26
2023-10-22T10:39:44.658Z,39.41
2023-10-22T10:42:13.280Z,39.72
2023-10-22T10:44:59.129Z,39.33
2023-10-22T10:47:26.633Z,39.46
2023-10-22T10:50:04.836Z,39.06
2023-10-22T10:52:44.329Z,38.85
2023-10-22T10:55:16.311Z,39.24
2023-10-22T10:57:48.682Z,38.99
2023-10-22T11:00:22.861Z,39.10
2023-10-22T11:02:52.680Z,39.88
2023-10-22T11:05:39.370Z,39.36
2023-10-22T11:08:19.885Z,39.26
2023-10-22T11:10:47.540Z,39.22
2023-10-22T11:13:15.101Z,39.36
2023-10-22T11:15:42.718Z,39.10
2023-10-22T11:18:13.263Z,38.77
2023-10-22T11:20:44.951Z,38.80
2023-10-22T11:23:19.810Z,38.35
2023-10-22T11:25:47.742Z,38.70
2023-10-22T11:28:15.924Z,38.81
2023-10-22T11:30:43.884Z,38.70
2023-10-22T11:33:27.894Z,38.25
2023-10-22T11:35:58.575Z,38.38
2023-10-22T11:38:26.132Z,38.37
2023-10-22T11:40:57.143Z,38.90
2023-10-22T11:43:28.068Z,39.23
2023-10-22T11:45:58.752Z,39.30
2023-10-22T11:48:27.499Z,39.42
2023-10-22T11:51:02.587Z,39.36
2023-10-22T11:53:44.223Z,39.34
2023-10-22T11:56:11.397Z,39.08
2023-10-22T11:58:45.670Z,39.68
2023-10-22T12:01:13.463Z,40.21
2023-10-22T12:03:40.627Z,40.02
2023-10-22T12:06:08.044Z,40.55
2023-10-22T12:08:35.016Z,40.46
2023-10-22T12:11:02.035Z,41.48
2023-10-22T12:13:29.059Z,41.18
2023-10-22T12:15:56.137Z,42.35
2023-10-22T12:18:25.197Z,41.40
2023-10-22T12:20:52.546Z,42.19
2023-10-22T12:23:21.225Z,40.79
2023-10-22T12:25:49.995Z,40.96
2023-10-22T12:28:17.013Z,41.11
2023-10-22T12:30:44.190Z,41.36
2023-10-22T12:33:11.418Z,41.65
2023-10-22T12:35:41.511Z,41.66
2023-10-22T12:38:08.732Z,41.69
2023-10-22T12:40:38.869Z,41.19
2023-10-22T12:43:06.549Z,41.41
2023-10-22T12:45:34.355Z,41.75
2023-10-22T12:48:01.549Z,41.34
2023-10-22T12:50:28.625Z,41.65
2023-10-22T12:52:55.624Z,41.34
2023-10-22T12:55:25.395Z,41.79
2023-10-22T12:57:52.873Z,41.14
2023-10-22T13:00:20.066Z,41.10
2023-10-22T13:02:47.526Z,41.70
2023-10-22T13:05:14.656Z,42.13
2023-10-22T13:07:41.751Z,42.50
2023-10-22T13:10:09.104Z,42.89
2023-10-22T13:12:37.356Z,43.16
2023-10-22T13:15:06.081Z,43.57
2023-10-22T13:17:36.955Z,42.84
2023-10-22T13:20:10.165Z,43.40
2023-10-22T13:22:37.625Z,42.71
2023-10-22T13:25:05.090Z,42.54
2023-10-22T13:27:34.289Z,42.43
2023-10-22T13:30:01.734Z,42.20
2023-10-22T13:32:28.949Z,42.46
2023-10-22T13:34:55.995Z,42.29
2023-10-22T13:37:23.067Z,42.48
2023-10-22T13:39:50.238Z,43.80
2023-10-22T13:42:17.379Z,43.09
2023-10-22T13:44:47.961Z,41.37
2023-10-22T13:47:16.869Z,42.30
2023-10-22T13:49:45.118Z,42.30
2023-10-22T13:52:12.271Z,41.69
2023-10-22T13:54:39.766Z,41.41
2023-10-22T13:57:07.581Z,41.35
2023-10-22T13:59:35.943Z,40.97
2023-10-22T14:02:02.991Z,41.20
2023-10-22T14:04:30.119Z,41.07
2023-10-22T14:07:00.168Z,41.33
2023-10-22T14:09:27.856Z,41.49
2023-10-22T14:11:55.400Z,42.13
2023-10-22T14:14:22.465Z,42.53
2023-10-22T14:16:49.831Z,42.78
2023-10-22T14:19:16.848Z,42.70
2023-10-22T14:21:44.183Z,42.30
2023-10-22T14:24:11.382Z,42.35
2023-10-22T14:26:38.498Z,41.85
2023-10-22T14:29:05.603Z,41.24
2023-10-22T14:31:32.781Z,41.64
2023-10-22T14:34:00.382Z,40.65
2023-10-22T14:36:27.541Z,40.59
2023-10-22T14:38:57.018Z,40.84
2023-10-22T14:41:25.926Z,40.72
2023-10-22T14:43:52.971Z,40.06
2023-10-22T14:46:20.488Z,40.26
2023-10-22T14:48:47.584Z,40.50
2023-10-22T14:51:14.828Z,40.22
2023-10-22T14:53:42.026Z,40.27
2023-10-22T14:56:09.338Z,40.37
2023-10-22T14:58:36.551Z,39.99
2023-10-22T15:01:12.669Z,40.19
2023-10-22T15:03:40.045Z,40.61
2023-10-22T15:06:07.487Z,40.70
2023-10-22T15:08:35.531Z,40.36
2023-10-22T15:11:04.811Z,40.26
2023-10-22T15:13:31.966Z,41.01
2023-10-22T15:15:59.022Z,41.01
2023-10-22T15:18:26.342Z,41.28
2023-10-22T15:20:53.819Z,41.39
2023-10-22T15:23:20.981Z,41.47
2023-10-22T15:25:50.417Z,41.43
2023-10-22T15:28:18.045Z,41.14
2023-10-22T15:30:46.340Z,41.89
2023-10-22T15:33:14.303Z,41.87
2023-10-22T15:35:44.523Z,41.96
2023-10-22T15:38:14.584Z,41.51
2023-10-22T15:40:41.675Z,41.54
2023-10-22T15:43:09.905Z,41.49
2023-10-22T15:45:46.345Z,41.46
2023-10-22T15:48:13.806Z,41.64
2023-10-22T15:50:45.656Z,42.14
2023-10-22T15:53:13.172Z,42.13
2023-10-22T15:55:40.376Z,42.48
2023-10-22T15:58:07.444Z,42.58
2023-10-22T16:00:36.716Z,42.92
2023-10-22T16:03:05.318Z,43.52
2023-10-22T16:05:32.548Z,43.60
2023-10-22T16:07:59.567Z,44.28
2023-10-22T16:10:27.250Z,44.87
2023-10-22T16:12:54.328Z,45.26
2023-10-22T16:15:22.253Z,45.12
2023-10-22T16:17:51.242Z,45.36
2023-10-22T16:20:18.480Z,44.90
2023-10-22T16:22:46.039Z,44.85
2023-10-22T16:25:14.234Z,44.69
2023-10-22T16:27:41.612Z,44.86
2023-10-22T16:30:09.776Z,44.88
2023-10-22T16:32:36.858Z,44.60
2023-10-22T16:35:03.979Z,44.90
2023-10-22T16:37:31.007Z,44.65
2023-10-22T16:39:58.551Z,44.98
2023-10-22T16:42:29.088Z,45.11
2023-10-22T16:44:56.410Z,45.16
2023-10-22T16:47:23.615Z,45.61
2023-10-22T16:49:50.874Z,45.56
2023-10-22T16:52:18.000Z,45.93
2023-10-22T16:54:45.143Z,45.97
2023-10-22T16:57:14.118Z,46.37
2023-10-22T16:59:42.468Z,46.64
2023-10-22T17:02:10.369Z,46.37
2023-10-22T17:04:37.417Z,46.70
2023-10-22T17:07:04.531Z,46.70
2023-10-22T17:09:32.506Z,46.63
2023-10-22T17:11:59.625Z,46.62
2023-10-22T17:14:37.663Z,46.61
2023-10-22T17:17:09.045Z,46.54
2023-10-22T17:19:36.483Z,46.52
2023-10-22T17:22:04.285Z,46.45
2023-10-22T17:24:33.131Z,46.88
2023-10-22T17:27:00.717Z,47.00
2023-10-22T17:29:27.762Z,46.62
2023-10-22T17:31:54.829Z,46.70
2023-10-22T17:34:21.884Z,46.65
2023-10-22T17:36:49.655Z,46.73
2023-10-22T17:39:17.218Z,46.18
2023-10-22T17:41:44.412Z,46.02
2023-10-22T17:44:11.955Z,45.94
2023-10-22T17:46:39.125Z,46.03
2023-10-22T17:49:06.233Z,46.08
2023-10-22T17:51:34.742Z,45.65
2023-10-22T17:54:01.893Z,45.55
2023-10-22T17:56:30.080Z,45.83
2023-10-22T17:58:57.079Z,45.81
2023-10-22T18:01:24.155Z,46.00
2023-10-22T18:03:51.449Z,45.80
2023-10-22T18:06:18.608Z,45.48
2023-10-22T18:08:46.559Z,45.24
2023-10-22T18:11:23.725Z,44.87
2023-10-22T18:13:50.798Z,44.80
2023-10-22T18:16:21.315Z,44.32
2023-10-22T18:18:50.827Z,44.32
2023-10-22T18:21:19.754Z,43.94
2023-10-22T18:23:47.049Z,43.78
2023-10-22T18:26:14.273Z,43.80
2023-10-22T18:28:41.403Z,43.83
2023-10-22T18:31:09.555Z,43.55
2023-10-22T18:33:37.954Z,43.48
2023-10-22T18:36:06.337Z,43.43
2023-10-22T18:38:36.425Z,43.41
2023-10-22T18:41:13.605Z,42.95
2023-10-22T18:43:47.075Z,42.51
2023-10-22T18:46:15.345Z,42.62
2023-10-22T18:48:47.359Z,42.63
2023-10-22T18:51:20.062Z,42.05
2023-10-22T18:53:47.980Z,42.36
2023-10-22T18:56:16.609Z,42.20
2023-10-22T18:58:45.132Z,42.24
2023-10-22T19:01:30.507Z,42.01
2023-10-22T19:04:00.669Z,42.04
2023-10-22T19:06:30.742Z,42.14
2023-10-22T19:09:00.642Z,42.48
2023-10-22T19:11:30.221Z,42.67
2023-10-22T19:14:01.348Z,42.85
2023-10-22T19:16:31.417Z,43.48
2023-10-22T19:19:00.049Z,44.04
2023-10-22T19:21:28.241Z,44.60
2023-10-22T19:23:58.190Z,44.99
2023-10-22T19:26:27.376Z,45.93
2023-10-22T19:28:55.400Z,45.96
2023-10-22T19:31:23.211Z,46.25
2023-10-22T19:33:51.048Z,46.60
2023-10-22T19:36:20.253Z,47.06
2023-10-22T19:38:50.777Z,47.42
2023-10-22T19:41:25.218Z,47.75
2023-10-22T19:44:07.639Z,48.28
2023-10-22T19:46:35.696Z,47.85
2023-10-22T19:49:05.405Z,48.13
2023-10-22T19:51:33.623Z,48.63
2023-10-22T19:54:01.279Z,48.63
2023-10-22T19:56:28.919Z,48.38
2023-10-22T19:58:57.790Z,48.84
2023-10-22T20:01:27.812Z,49.01
2023-10-22T20:03:55.880Z,49.26
2023-10-22T20:06:24.693Z,48.82
2023-10-22T20:09:03.779Z,49.82
2023-10-22T20:11:31.334Z,49.68
2023-10-22T20:13:59.098Z,49.92
2023-10-22T20:16:29.331Z,50.17
2023-10-22T20:25:50.639Z,50.47
2023-10-22T20:28:20.945Z,50.65
2023-10-22T20:35:12.761Z,51.56
2023-10-22T20:37:41.370Z,51.46
2023-10-22T20:40:21.531Z,51.90
2023-10-22T20:52:27.400Z,52.18
2023-10-22T20:54:54.948Z,52.27
2023-10-22T20:57:22.447Z,52.47
2023-10-22T20:59:50.521Z,52.45
2023-10-22T21:02:17.567Z,52.82
2023-10-22T21:04:44.801Z,53.02
2023-10-22T21:07:15.571Z,52.77
2023-10-22T21:09:44.129Z,53.55
2023-10-22T21:20:07.207Z,54.94
2023-10-22T21:22:34.352Z,55.03
2023-10-22T21:25:01.418Z,55.59
2023-10-22T21:27:28.493Z,55.65
2023-10-22T21:29:55.693Z,55.96
2023-10-22T21:32:28.859Z,56.58
2023-10-22T21:34:56.240Z,56.76
2023-10-22T21:37:24.579Z,57.18
2023-10-22T21:39:51.651Z,57.70
2023-10-22T21:42:18.687Z,57.48
2023-10-22T21:44:48.987Z,57.63
2023-10-22T21:47:29.490Z,57.50
2023-10-22T21:49:59.916Z,57.46
2023-10-22T21:52:27.054Z,57.19
2023-10-22T21:54:54.617Z,57.05
2023-10-22T21:57:24.288Z,57.33
2023-10-22T21:59:51.654Z,57.39
2023-10-22T22:02:21.935Z,58.04
2023-10-22T22:04:49.159Z,57.99
2023-10-22T22:07:16.195Z,57.90
2023-10-22T22:09:43.381Z,58.20
2023-10-22T22:12:10.501Z,58.20
2023-10-22T22:14:37.760Z,58.12
2023-10-22T22:17:05.100Z,58.10
2023-10-22T22:19:32.630Z,57.94
2023-10-22T22:21:59.660Z,57.68
2023-10-22T22:24:26.678Z,57.65
2023-10-22T22:26:53.819Z,57.09
2023-10-22T22:29:21.089Z,57.34
2023-10-22T22:31:48.151Z,57.63
2023-10-22T22:34:15.203Z,57.47
2023-10-22T22:36:42.305Z,57.72
2023-10-22T22:39:09.370Z,57.46
2023-10-22T22:41:36.382Z,57.35
2023-10-22T22:44:03.578Z,57.34
2023-10-22T22:46:30.594Z,57.32
2023-10-22T22:48:58.818Z,57.10
2023-10-22T22:51:26.421Z,56.91
2023-10-22T22:53:53.557Z,56.73
2023-10-22T22:56:20.673Z,56.86
2023-10-22T22:58:47.783Z,56.87
2023-10-22T23:01:22.328Z,57.17
2023-10-22T23:03:49.564Z,56.85
2023-10-22T23:06:16.641Z,57.02
2023-10-22T23:08:43.685Z,57.07
2023-10-22T23:11:13.264Z,57.05
2023-10-22T23:13:40.593Z,57.13
2023-10-22T23:16:07.666Z,56.96
2023-10-22T23:18:34.915Z,57.34
2023-10-22T23:21:01.964Z,57.21
2023-10-22T23:23:29.013Z,57.14
2023-10-22T23:25:56.106Z,57.38
2023-10-22T23:28:23.198Z,57.25
2023-10-22T23:30:51.996Z,57.20
2023-10-22T23:33:22.296Z,57.20
2023-10-22T23:35:49.609Z,57.19
2023-10-22T23:38:16.667Z,57.35
2023-10-22T23:40:43.807Z,57.33
2023-10-22T23:43:10.774Z,57.42
2023-10-22T23:45:37.865Z,57.45
2023-10-22T23:48:05.760Z,57.31
2023-10-22T23:50:32.852Z,57.68
2023-10-22T23:53:00.007Z,57.54
2023-10-22T23:55:27.061Z,57.57
2023-10-22T23:57:54.089Z,57.20
